sensor_id;sensor_type;location;lat;lon;timestamp;P1;durP1;ratioP1;P2;durP2;ratioP2
79578;SDS011;69051;52.406;5.280;2023-08-12T00:01:51;7.00;;;3.13;;
79578;SDS011;69051;52.406;5.280;2023-08-12T00:04:17;6.85;;;2.92;;
79578;SDS011;69051;52.406;5.280;2023-08-12T00:06:44;8.13;;;3.08;;
79578;SDS011;69051;52.406;5.280;2023-08-12T00:09:10;9.68;;;2.72;;
79578;SDS011;69051;52.406;5.280;2023-08-12T00:11:41;10.60;;;3.20;;
79578;SDS011;69051;52.406;5.280;2023-08-12T00:14:07;11.57;;;3.95;;
79578;SDS011;69051;52.406;5.280;2023-08-12T00:16:34;10.50;;;3.50;;
79578;SDS011;69051;52.406;5.280;2023-08-12T00:19:01;10.80;;;3.88;;
79578;SDS011;69051;52.406;5.280;2023-08-12T00:21:27;13.80;;;3.75;;
79578;SDS011;69051;52.406;5.280;2023-08-12T00:23:54;11.07;;;3.40;;
79578;SDS011;69051;52.406;5.280;2023-08-12T00:26:20;11.15;;;3.80;;
79578;SDS011;69051;52.406;5.280;2023-08-12T00:28:48;7.78;;;3.60;;
79578;SDS011;69051;52.406;5.280;2023-08-12T00:31:15;12.38;;;3.75;;
79578;SDS011;69051;52.406;5.280;2023-08-12T00:33:41;10.88;;;3.25;;
79578;SDS011;69051;52.406;5.280;2023-08-12T00:36:08;8.68;;;4.00;;
79578;SDS011;69051;52.406;5.280;2023-08-12T00:38:35;9.60;;;4.05;;
79578;SDS011;69051;52.406;5.280;2023-08-12T00:41:01;12.25;;;4.60;;
79578;SDS011;69051;52.406;5.280;2023-08-12T00:43:28;13.00;;;4.03;;
79578;SDS011;69051;52.406;5.280;2023-08-12T00:45:54;9.00;;;3.80;;
79578;SDS011;69051;52.406;5.280;2023-08-12T00:48:20;11.32;;;4.38;;
79578;SDS011;69051;52.406;5.280;2023-08-12T00:50:47;9.98;;;4.18;;
79578;SDS011;69051;52.406;5.280;2023-08-12T00:53:14;9.30;;;3.80;;
79578;SDS011;69051;52.406;5.280;2023-08-12T00:55:41;11.43;;;4.28;;
79578;SDS011;69051;52.406;5.280;2023-08-12T00:58:07;13.27;;;4.00;;
79578;SDS011;69051;52.406;5.280;2023-08-12T01:00:34;10.70;;;4.07;;
79578;SDS011;69051;52.406;5.280;2023-08-12T01:03:01;8.93;;;3.65;;
79578;SDS011;69051;52.406;5.280;2023-08-12T01:05:28;12.70;;;4.20;;
79578;SDS011;69051;52.406;5.280;2023-08-12T01:07:57;9.85;;;4.00;;
79578;SDS011;69051;52.406;5.280;2023-08-12T01:10:24;13.18;;;3.85;;
79578;SDS011;69051;52.406;5.280;2023-08-12T01:16:03;14.38;;;4.50;;
79578;SDS011;69051;52.406;5.280;2023-08-12T01:18:31;12.50;;;4.13;;
79578;SDS011;69051;52.406;5.280;2023-08-12T01:20:58;8.82;;;4.20;;
79578;SDS011;69051;52.406;5.280;2023-08-12T01:23:25;14.18;;;4.88;;
79578;SDS011;69051;52.406;5.280;2023-08-12T01:25:52;9.55;;;4.30;;
79578;SDS011;69051;52.406;5.280;2023-08-12T01:28:18;13.40;;;4.18;;
79578;SDS011;69051;52.406;5.280;2023-08-12T01:33:53;11.95;;;4.90;;
79578;SDS011;69051;52.406;5.280;2023-08-12T01:36:22;11.55;;;5.25;;
79578;SDS011;69051;52.406;5.280;2023-08-12T01:38:50;12.30;;;4.75;;
79578;SDS011;69051;52.406;5.280;2023-08-12T01:41:18;15.70;;;5.57;;
79578;SDS011;69051;52.406;5.280;2023-08-12T01:43:44;12.65;;;4.95;;
79578;SDS011;69051;52.406;5.280;2023-08-12T01:46:11;18.92;;;5.47;;
79578;SDS011;69051;52.406;5.280;2023-08-12T01:48:38;14.32;;;5.72;;
79578;SDS011;69051;52.406;5.280;2023-08-12T01:51:04;12.88;;;4.70;;
79578;SDS011;69051;52.406;5.280;2023-08-12T01:53:31;9.90;;;4.85;;
79578;SDS011;69051;52.406;5.280;2023-08-12T01:55:57;14.23;;;4.68;;
79578;SDS011;69051;52.406;5.280;2023-08-12T01:58:24;16.65;;;5.47;;
79578;SDS011;69051;52.406;5.280;2023-08-12T02:00:52;13.55;;;5.28;;
79578;SDS011;69051;52.406;5.280;2023-08-12T02:03:19;15.02;;;5.25;;
79578;SDS011;69051;52.406;5.280;2023-08-12T02:05:46;12.90;;;4.97;;
79578;SDS011;69051;52.406;5.280;2023-08-12T02:08:12;13.50;;;5.35;;
79578;SDS011;69051;52.406;5.280;2023-08-12T02:10:39;13.07;;;5.88;;
79578;SDS011;69051;52.406;5.280;2023-08-12T02:13:06;13.68;;;5.53;;
79578;SDS011;69051;52.406;5.280;2023-08-12T02:15:32;17.20;;;5.60;;
79578;SDS011;69051;52.406;5.280;2023-08-12T02:17:59;13.48;;;5.70;;
79578;SDS011;69051;52.406;5.280;2023-08-12T02:20:25;17.73;;;5.43;;
79578;SDS011;69051;52.406;5.280;2023-08-12T02:22:52;10.48;;;4.90;;
79578;SDS011;69051;52.406;5.280;2023-08-12T02:25:18;14.40;;;4.88;;
79578;SDS011;69051;52.406;5.280;2023-08-12T02:27:45;13.55;;;6.22;;
79578;SDS011;69051;52.406;5.280;2023-08-12T02:30:11;13.93;;;5.18;;
79578;SDS011;69051;52.406;5.280;2023-08-12T02:32:38;15.68;;;6.35;;
79578;SDS011;69051;52.406;5.280;2023-08-12T02:35:05;15.30;;;5.82;;
79578;SDS011;69051;52.406;5.280;2023-08-12T02:37:31;14.75;;;5.50;;
79578;SDS011;69051;52.406;5.280;2023-08-12T02:39:58;14.48;;;5.75;;
79578;SDS011;69051;52.406;5.280;2023-08-12T02:42:24;13.52;;;5.78;;
79578;SDS011;69051;52.406;5.280;2023-08-12T02:44:51;13.05;;;5.13;;
79578;SDS011;69051;52.406;5.280;2023-08-12T02:47:17;14.90;;;5.70;;
79578;SDS011;69051;52.406;5.280;2023-08-12T02:49:44;15.93;;;5.50;;
79578;SDS011;69051;52.406;5.280;2023-08-12T02:52:10;20.48;;;5.60;;
79578;SDS011;69051;52.406;5.280;2023-08-12T02:54:37;10.35;;;4.95;;
79578;SDS011;69051;52.406;5.280;2023-08-12T02:57:03;19.77;;;6.40;;
79578;SDS011;69051;52.406;5.280;2023-08-12T02:59:30;15.98;;;5.88;;
79578;SDS011;69051;52.406;5.280;2023-08-12T03:01:56;18.30;;;5.60;;
79578;SDS011;69051;52.406;5.280;2023-08-12T03:04:23;16.63;;;5.00;;
79578;SDS011;69051;52.406;5.280;2023-08-12T03:06:50;13.75;;;6.00;;
79578;SDS011;69051;52.406;5.280;2023-08-12T03:09:17;14.48;;;6.20;;
79578;SDS011;69051;52.406;5.280;2023-08-12T03:11:44;19.73;;;7.82;;
79578;SDS011;69051;52.406;5.280;2023-08-12T03:14:11;20.30;;;7.70;;
79578;SDS011;69051;52.406;5.280;2023-08-12T03:16:37;19.17;;;7.35;;
79578;SDS011;69051;52.406;5.280;2023-08-12T03:19:03;16.63;;;7.40;;
79578;SDS011;69051;52.406;5.280;2023-08-12T03:21:30;25.17;;;8.27;;
79578;SDS011;69051;52.406;5.280;2023-08-12T03:23:56;21.30;;;7.75;;
79578;SDS011;69051;52.406;5.280;2023-08-12T03:26:23;16.88;;;7.70;;
79578;SDS011;69051;52.406;5.280;2023-08-12T03:28:49;21.80;;;8.77;;
79578;SDS011;69051;52.406;5.280;2023-08-12T03:31:16;22.85;;;9.02;;
79578;SDS011;69051;52.406;5.280;2023-08-12T03:33:42;23.92;;;8.48;;
79578;SDS011;69051;52.406;5.280;2023-08-12T03:36:09;27.02;;;10.18;;
79578;SDS011;69051;52.406;5.280;2023-08-12T03:38:36;19.88;;;9.13;;
79578;SDS011;69051;52.406;5.280;2023-08-12T03:41:03;27.33;;;9.98;;
79578;SDS011;69051;52.406;5.280;2023-08-12T03:43:29;26.23;;;10.18;;
79578;SDS011;69051;52.406;5.280;2023-08-12T03:45:56;25.83;;;10.23;;
79578;SDS011;69051;52.406;5.280;2023-08-12T03:48:22;27.02;;;11.23;;
79578;SDS011;69051;52.406;5.280;2023-08-12T03:50:49;35.25;;;11.73;;
79578;SDS011;69051;52.406;5.280;2023-08-12T03:53:16;24.73;;;10.95;;
79578;SDS011;69051;52.406;5.280;2023-08-12T03:55:43;24.30;;;11.95;;
79578;SDS011;69051;52.406;5.280;2023-08-12T03:58:10;31.58;;;10.90;;
79578;SDS011;69051;52.406;5.280;2023-08-12T04:00:40;24.00;;;10.05;;
79578;SDS011;69051;52.406;5.280;2023-08-12T04:03:07;25.80;;;10.43;;
79578;SDS011;69051;52.406;5.280;2023-08-12T04:05:34;26.30;;;12.35;;
79578;SDS011;69051;52.406;5.280;2023-08-12T04:08:00;27.25;;;11.05;;
79578;SDS011;69051;52.406;5.280;2023-08-12T04:10:26;24.17;;;10.40;;
79578;SDS011;69051;52.406;5.280;2023-08-12T04:12:53;23.88;;;10.98;;
79578;SDS011;69051;52.406;5.280;2023-08-12T04:15:19;30.33;;;12.20;;
79578;SDS011;69051;52.406;5.280;2023-08-12T04:17:47;27.65;;;10.88;;
79578;SDS011;69051;52.406;5.280;2023-08-12T04:20:13;26.13;;;11.35;;
79578;SDS011;69051;52.406;5.280;2023-08-12T04:22:40;25.85;;;12.43;;
79578;SDS011;69051;52.406;5.280;2023-08-12T04:25:06;26.50;;;11.77;;
79578;SDS011;69051;52.406;5.280;2023-08-12T04:27:34;26.05;;;11.88;;
79578;SDS011;69051;52.406;5.280;2023-08-12T04:30:00;24.55;;;10.90;;
79578;SDS011;69051;52.406;5.280;2023-08-12T04:32:26;24.75;;;11.18;;
79578;SDS011;69051;52.406;5.280;2023-08-12T04:34:54;26.65;;;12.18;;
79578;SDS011;69051;52.406;5.280;2023-08-12T04:37:20;28.00;;;11.35;;
79578;SDS011;69051;52.406;5.280;2023-08-12T04:39:47;26.75;;;10.85;;
79578;SDS011;69051;52.406;5.280;2023-08-12T04:42:13;27.98;;;12.75;;
79578;SDS011;69051;52.406;5.280;2023-08-12T04:44:40;25.48;;;11.30;;
79578;SDS011;69051;52.406;5.280;2023-08-12T04:47:06;25.88;;;11.20;;
79578;SDS011;69051;52.406;5.280;2023-08-12T04:49:33;26.60;;;12.18;;
79578;SDS011;69051;52.406;5.280;2023-08-12T04:51:59;30.95;;;12.40;;
79578;SDS011;69051;52.406;5.280;2023-08-12T04:54:26;25.45;;;13.07;;
79578;SDS011;69051;52.406;5.280;2023-08-12T04:56:52;26.38;;;12.13;;
79578;SDS011;69051;52.406;5.280;2023-08-12T04:59:19;30.88;;;12.75;;
79578;SDS011;69051;52.406;5.280;2023-08-12T05:01:45;23.05;;;12.43;;
79578;SDS011;69051;52.406;5.280;2023-08-12T05:04:29;27.42;;;12.45;;
79578;SDS011;69051;52.406;5.280;2023-08-12T05:06:55;27.90;;;12.18;;
79578;SDS011;69051;52.406;5.280;2023-08-12T05:09:21;23.98;;;11.93;;
79578;SDS011;69051;52.406;5.280;2023-08-12T05:11:48;21.13;;;11.35;;
79578;SDS011;69051;52.406;5.280;2023-08-12T05:14:14;21.75;;;11.52;;
79578;SDS011;69051;52.406;5.280;2023-08-12T05:16:41;27.30;;;11.70;;
79578;SDS011;69051;52.406;5.280;2023-08-12T05:19:07;24.25;;;11.90;;
79578;SDS011;69051;52.406;5.280;2023-08-12T05:21:34;27.60;;;12.32;;
79578;SDS011;69051;52.406;5.280;2023-08-12T05:24:00;25.67;;;11.02;;
79578;SDS011;69051;52.406;5.280;2023-08-12T05:26:27;30.20;;;12.25;;
79578;SDS011;69051;52.406;5.280;2023-08-12T05:28:53;20.70;;;10.38;;
79578;SDS011;69051;52.406;5.280;2023-08-12T05:31:20;24.98;;;11.98;;
79578;SDS011;69051;52.406;5.280;2023-08-12T05:33:47;25.55;;;11.43;;
79578;SDS011;69051;52.406;5.280;2023-08-12T05:36:13;21.10;;;10.07;;
79578;SDS011;69051;52.406;5.280;2023-08-12T05:38:40;25.35;;;11.13;;
79578;SDS011;69051;52.406;5.280;2023-08-12T05:41:06;27.20;;;10.85;;
79578;SDS011;69051;52.406;5.280;2023-08-12T05:43:33;24.38;;;11.90;;
79578;SDS011;69051;52.406;5.280;2023-08-12T05:46:00;28.02;;;11.50;;
79578;SDS011;69051;52.406;5.280;2023-08-12T05:48:26;25.35;;;12.43;;
79578;SDS011;69051;52.406;5.280;2023-08-12T05:50:53;24.52;;;11.95;;
79578;SDS011;69051;52.406;5.280;2023-08-12T05:53:21;25.08;;;13.45;;
79578;SDS011;69051;52.406;5.280;2023-08-12T05:55:48;20.60;;;11.60;;
79578;SDS011;69051;52.406;5.280;2023-08-12T05:58:14;24.83;;;12.45;;
79578;SDS011;69051;52.406;5.280;2023-08-12T06:00:41;27.75;;;12.25;;
79578;SDS011;69051;52.406;5.280;2023-08-12T06:03:11;28.30;;;13.43;;
79578;SDS011;69051;52.406;5.280;2023-08-12T06:05:39;23.02;;;11.73;;
79578;SDS011;69051;52.406;5.280;2023-08-12T06:08:06;28.90;;;12.80;;
79578;SDS011;69051;52.406;5.280;2023-08-12T06:10:33;25.00;;;11.43;;
79578;SDS011;69051;52.406;5.280;2023-08-12T06:12:59;27.67;;;13.02;;
79578;SDS011;69051;52.406;5.280;2023-08-12T06:15:26;27.52;;;12.93;;
79578;SDS011;69051;52.406;5.280;2023-08-12T06:17:52;29.55;;;14.80;;
79578;SDS011;69051;52.406;5.280;2023-08-12T06:20:19;31.52;;;11.88;;
79578;SDS011;69051;52.406;5.280;2023-08-12T06:22:45;31.73;;;13.43;;
79578;SDS011;69051;52.406;5.280;2023-08-12T06:25:12;25.92;;;14.55;;
79578;SDS011;69051;52.406;5.280;2023-08-12T06:27:38;25.00;;;12.30;;
79578;SDS011;69051;52.406;5.280;2023-08-12T06:30:05;28.70;;;13.38;;
79578;SDS011;69051;52.406;5.280;2023-08-12T06:32:33;24.00;;;13.27;;
79578;SDS011;69051;52.406;5.280;2023-08-12T06:35:00;29.98;;;15.07;;
79578;SDS011;69051;52.406;5.280;2023-08-12T06:37:27;30.25;;;13.75;;
79578;SDS011;69051;52.406;5.280;2023-08-12T06:39:53;28.85;;;13.98;;
79578;SDS011;69051;52.406;5.280;2023-08-12T06:42:21;28.88;;;12.95;;
79578;SDS011;69051;52.406;5.280;2023-08-12T06:44:55;29.60;;;14.18;;
79578;SDS011;69051;52.406;5.280;2023-08-12T06:47:23;30.40;;;15.38;;
79578;SDS011;69051;52.406;5.280;2023-08-12T06:49:49;33.00;;;15.82;;
79578;SDS011;69051;52.406;5.280;2023-08-12T06:52:16;30.17;;;15.40;;
79578;SDS011;69051;52.406;5.280;2023-08-12T06:54:42;32.88;;;14.07;;
79578;SDS011;69051;52.406;5.280;2023-08-12T06:57:09;31.85;;;15.15;;
79578;SDS011;69051;52.406;5.280;2023-08-12T06:59:38;23.10;;;12.75;;
79578;SDS011;69051;52.406;5.280;2023-08-12T07:02:05;25.67;;;13.45;;
79578;SDS011;69051;52.406;5.280;2023-08-12T07:04:32;26.98;;;12.27;;
79578;SDS011;69051;52.406;5.280;2023-08-12T07:06:59;21.05;;;11.52;;
79578;SDS011;69051;52.406;5.280;2023-08-12T07:09:26;20.73;;;11.00;;
79578;SDS011;69051;52.406;5.280;2023-08-12T07:11:52;21.65;;;10.88;;
79578;SDS011;69051;52.406;5.280;2023-08-12T07:14:19;22.92;;;10.38;;
79578;SDS011;69051;52.406;5.280;2023-08-12T07:16:45;23.67;;;9.77;;
79578;SDS011;69051;52.406;5.280;2023-08-12T07:19:12;17.55;;;9.15;;
79578;SDS011;69051;52.406;5.280;2023-08-12T07:21:42;17.00;;;8.88;;
79578;SDS011;69051;52.406;5.280;2023-08-12T07:24:08;17.23;;;8.30;;
79578;SDS011;69051;52.406;5.280;2023-08-12T07:26:35;14.70;;;7.53;;
79578;SDS011;69051;52.406;5.280;2023-08-12T07:29:01;13.15;;;6.53;;
79578;SDS011;69051;52.406;5.280;2023-08-12T07:31:28;13.68;;;6.07;;
79578;SDS011;69051;52.406;5.280;2023-08-12T07:33:54;11.52;;;5.35;;
79578;SDS011;69051;52.406;5.280;2023-08-12T07:36:21;11.23;;;5.13;;
79578;SDS011;69051;52.406;5.280;2023-08-12T07:38:48;11.57;;;5.10;;
79578;SDS011;69051;52.406;5.280;2023-08-12T07:41:15;11.88;;;4.90;;
79578;SDS011;69051;52.406;5.280;2023-08-12T07:43:42;10.07;;;5.00;;
79578;SDS011;69051;52.406;5.280;2023-08-12T07:46:09;9.00;;;4.32;;
79578;SDS011;69051;52.406;5.280;2023-08-12T07:48:35;10.73;;;4.47;;
79578;SDS011;69051;52.406;5.280;2023-08-12T07:51:03;7.43;;;3.72;;
79578;SDS011;69051;52.406;5.280;2023-08-12T07:53:30;8.65;;;4.18;;
79578;SDS011;69051;52.406;5.280;2023-08-12T07:55:56;10.02;;;4.43;;
79578;SDS011;69051;52.406;5.280;2023-08-12T07:58:23;12.18;;;4.35;;
79578;SDS011;69051;52.406;5.280;2023-08-12T08:00:52;7.40;;;3.70;;
79578;SDS011;69051;52.406;5.280;2023-08-12T08:03:20;8.63;;;4.15;;
79578;SDS011;69051;52.406;5.280;2023-08-12T08:05:46;24.05;;;4.50;;
79578;SDS011;69051;52.406;5.280;2023-08-12T08:08:13;9.85;;;4.10;;
79578;SDS011;69051;52.406;5.280;2023-08-12T08:10:40;9.57;;;4.50;;
79578;SDS011;69051;52.406;5.280;2023-08-12T08:13:06;8.52;;;4.22;;
79578;SDS011;69051;52.406;5.280;2023-08-12T08:15:33;9.43;;;3.88;;
79578;SDS011;69051;52.406;5.280;2023-08-12T08:17:59;8.68;;;3.72;;
79578;SDS011;69051;52.406;5.280;2023-08-12T08:20:27;7.53;;;3.35;;
79578;SDS011;69051;52.406;5.280;2023-08-12T08:22:54;9.02;;;3.80;;
79578;SDS011;69051;52.406;5.280;2023-08-12T08:25:21;8.38;;;3.20;;
79578;SDS011;69051;52.406;5.280;2023-08-12T08:27:48;7.95;;;3.22;;
79578;SDS011;69051;52.406;5.280;2023-08-12T08:30:14;6.85;;;2.97;;
79578;SDS011;69051;52.406;5.280;2023-08-12T08:32:41;5.65;;;2.83;;
79578;SDS011;69051;52.406;5.280;2023-08-12T08:35:08;5.72;;;2.50;;
79578;SDS011;69051;52.406;5.280;2023-08-12T08:37:36;6.47;;;2.72;;
79578;SDS011;69051;52.406;5.280;2023-08-12T08:40:05;5.57;;;2.35;;
79578;SDS011;69051;52.406;5.280;2023-08-12T08:42:34;5.25;;;2.10;;
79578;SDS011;69051;52.406;5.280;2023-08-12T08:45:02;5.20;;;1.88;;
79578;SDS011;69051;52.406;5.280;2023-08-12T08:47:31;9.18;;;1.85;;
79578;SDS011;69051;52.406;5.280;2023-08-12T08:49:58;6.05;;;1.65;;
79578;SDS011;69051;52.406;5.280;2023-08-12T08:52:27;6.47;;;1.60;;
79578;SDS011;69051;52.406;5.280;2023-08-12T08:54:54;4.97;;;1.80;;
79578;SDS011;69051;52.406;5.280;2023-08-12T08:57:20;8.15;;;1.90;;
79578;SDS011;69051;52.406;5.280;2023-08-12T09:00:04;8.10;;;2.13;;
79578;SDS011;69051;52.406;5.280;2023-08-12T09:02:38;6.60;;;1.95;;
79578;SDS011;69051;52.406;5.280;2023-08-12T09:05:05;9.18;;;2.10;;
79578;SDS011;69051;52.406;5.280;2023-08-12T09:07:33;7.70;;;1.80;;
79578;SDS011;69051;52.406;5.280;2023-08-12T09:10:01;5.72;;;1.27;;
79578;SDS011;69051;52.406;5.280;2023-08-12T09:12:31;8.48;;;1.55;;
79578;SDS011;69051;52.406;5.280;2023-08-12T09:14:58;7.70;;;1.70;;
79578;SDS011;69051;52.406;5.280;2023-08-12T09:17:25;9.88;;;1.90;;
79578;SDS011;69051;52.406;5.280;2023-08-12T09:19:52;7.85;;;1.55;;
79578;SDS011;69051;52.406;5.280;2023-08-12T09:22:19;6.07;;;1.50;;
79578;SDS011;69051;52.406;5.280;2023-08-12T09:24:45;8.02;;;1.60;;
79578;SDS011;69051;52.406;5.280;2023-08-12T09:27:12;9.48;;;2.10;;
79578;SDS011;69051;52.406;5.280;2023-08-12T09:29:43;8.70;;;1.85;;
79578;SDS011;69051;52.406;5.280;2023-08-12T09:34:46;7.55;;;1.70;;
79578;SDS011;69051;52.406;5.280;2023-08-12T09:37:20;7.05;;;1.60;;
79578;SDS011;69051;52.406;5.280;2023-08-12T09:39:48;6.53;;;1.70;;
79578;SDS011;69051;52.406;5.280;2023-08-12T09:42:15;10.80;;;2.08;;
79578;SDS011;69051;52.406;5.280;2023-08-12T09:44:42;8.63;;;1.90;;
79578;SDS011;69051;52.406;5.280;2023-08-12T09:47:09;9.82;;;2.03;;
79578;SDS011;69051;52.406;5.280;2023-08-12T09:49:37;12.07;;;2.40;;
79578;SDS011;69051;52.406;5.280;2023-08-12T09:52:04;6.80;;;1.60;;
79578;SDS011;69051;52.406;5.280;2023-08-12T09:54:31;9.05;;;1.80;;
79578;SDS011;69051;52.406;5.280;2023-08-12T09:56:59;10.52;;;1.92;;
79578;SDS011;69051;52.406;5.280;2023-08-12T09:59:30;6.50;;;1.75;;
79578;SDS011;69051;52.406;5.280;2023-08-12T10:01:58;9.73;;;2.70;;
79578;SDS011;69051;52.406;5.280;2023-08-12T10:04:27;7.93;;;1.77;;
79578;SDS011;69051;52.406;5.280;2023-08-12T10:06:56;8.63;;;1.75;;
79578;SDS011;69051;52.406;5.280;2023-08-12T10:09:22;9.73;;;1.90;;
79578;SDS011;69051;52.406;5.280;2023-08-12T10:11:49;13.57;;;2.03;;
79578;SDS011;69051;52.406;5.280;2023-08-12T10:14:18;16.42;;;2.20;;
79578;SDS011;69051;52.406;5.280;2023-08-12T10:16:46;7.40;;;2.08;;
79578;SDS011;69051;52.406;5.280;2023-08-12T10:19:13;7.25;;;1.67;;
79578;SDS011;69051;52.406;5.280;2023-08-12T10:21:41;12.63;;;1.80;;
79578;SDS011;69051;52.406;5.280;2023-08-12T10:24:08;10.75;;;2.30;;
79578;SDS011;69051;52.406;5.280;2023-08-12T10:26:34;12.90;;;1.85;;
79578;SDS011;69051;52.406;5.280;2023-08-12T10:29:01;7.85;;;2.30;;
79578;SDS011;69051;52.406;5.280;2023-08-12T10:31:28;6.18;;;1.70;;
79578;SDS011;69051;52.406;5.280;2023-08-12T10:33:57;9.27;;;1.80;;
79578;SDS011;69051;52.406;5.280;2023-08-12T10:36:24;8.63;;;1.77;;
79578;SDS011;69051;52.406;5.280;2023-08-12T10:38:52;7.75;;;1.70;;
79578;SDS011;69051;52.406;5.280;2023-08-12T10:41:23;4.60;;;1.48;;
79578;SDS011;69051;52.406;5.280;2023-08-12T10:46:23;10.93;;;1.90;;
79578;SDS011;69051;52.406;5.280;2023-08-12T10:49:10;8.98;;;1.90;;
79578;SDS011;69051;52.406;5.280;2023-08-12T10:51:47;7.50;;;1.88;;
79578;SDS011;69051;52.406;5.280;2023-08-12T11:05:03;8.68;;;2.10;;
79578;SDS011;69051;52.406;5.280;2023-08-12T11:07:44;7.93;;;1.80;;
79578;SDS011;69051;52.406;5.280;2023-08-12T11:10:16;16.85;;;2.95;;
79578;SDS011;69051;52.406;5.280;2023-08-12T11:12:54;12.90;;;2.10;;
79578;SDS011;69051;52.406;5.280;2023-08-12T11:15:40;8.38;;;2.00;;
79578;SDS011;69051;52.406;5.280;2023-08-12T11:18:09;8.32;;;1.85;;
79578;SDS011;69051;52.406;5.280;2023-08-12T11:20:36;8.48;;;1.42;;
79578;SDS011;69051;52.406;5.280;2023-08-12T11:23:04;11.05;;;1.90;;
79578;SDS011;69051;52.406;5.280;2023-08-12T11:25:32;8.55;;;1.95;;
79578;SDS011;69051;52.406;5.280;2023-08-12T11:27:59;8.57;;;1.73;;
79578;SDS011;69051;52.406;5.280;2023-08-12T11:30:26;12.95;;;2.00;;
79578;SDS011;69051;52.406;5.280;2023-08-12T11:32:56;15.35;;;2.33;;
79578;SDS011;69051;52.406;5.280;2023-08-12T11:35:23;9.82;;;1.70;;
79578;SDS011;69051;52.406;5.280;2023-08-12T11:37:51;10.63;;;1.92;;
79578;SDS011;69051;52.406;5.280;2023-08-12T11:40:19;11.20;;;2.17;;
79578;SDS011;69051;52.406;5.280;2023-08-12T11:42:46;9.80;;;1.88;;
79578;SDS011;69051;52.406;5.280;2023-08-12T11:45:15;10.27;;;2.13;;
79578;SDS011;69051;52.406;5.280;2023-08-12T11:47:43;10.80;;;2.45;;
79578;SDS011;69051;52.406;5.280;2023-08-12T11:50:11;8.93;;;1.75;;
79578;SDS011;69051;52.406;5.280;2023-08-12T11:52:39;12.88;;;2.35;;
79578;SDS011;69051;52.406;5.280;2023-08-12T11:55:06;6.90;;;1.75;;
79578;SDS011;69051;52.406;5.280;2023-08-12T11:57:33;8.95;;;1.80;;
79578;SDS011;69051;52.406;5.280;2023-08-12T12:00:04;15.10;;;2.50;;
79578;SDS011;69051;52.406;5.280;2023-08-12T12:02:47;10.48;;;2.17;;
79578;SDS011;69051;52.406;5.280;2023-08-12T12:05:20;9.80;;;1.75;;
79578;SDS011;69051;52.406;5.280;2023-08-12T12:07:54;8.32;;;1.65;;
79578;SDS011;69051;52.406;5.280;2023-08-12T12:10:25;10.10;;;2.20;;
79578;SDS011;69051;52.406;5.280;2023-08-12T12:13:00;9.20;;;2.10;;
79578;SDS011;69051;52.406;5.280;2023-08-12T12:15:28;10.35;;;1.83;;
79578;SDS011;69051;52.406;5.280;2023-08-12T12:17:54;10.32;;;1.90;;
79578;SDS011;69051;52.406;5.280;2023-08-12T12:20:21;12.02;;;1.95;;
79578;SDS011;69051;52.406;5.280;2023-08-12T12:22:48;11.30;;;2.15;;
79578;SDS011;69051;52.406;5.280;2023-08-12T12:25:15;11.57;;;2.05;;
79578;SDS011;69051;52.406;5.280;2023-08-12T12:27:45;9.73;;;2.10;;
79578;SDS011;69051;52.406;5.280;2023-08-12T12:30:13;12.15;;;2.42;;
79578;SDS011;69051;52.406;5.280;2023-08-12T12:32:41;11.77;;;2.55;;
79578;SDS011;69051;52.406;5.280;2023-08-12T12:35:07;13.38;;;2.58;;
79578;SDS011;69051;52.406;5.280;2023-08-12T12:37:34;9.88;;;2.08;;
79578;SDS011;69051;52.406;5.280;2023-08-12T12:40:02;13.63;;;2.65;;
79578;SDS011;69051;52.406;5.280;2023-08-12T12:42:29;11.15;;;2.20;;
79578;SDS011;69051;52.406;5.280;2023-08-12T12:44:56;8.52;;;2.17;;
79578;SDS011;69051;52.406;5.280;2023-08-12T12:47:23;11.65;;;2.42;;
79578;SDS011;69051;52.406;5.280;2023-08-12T12:49:49;10.75;;;1.88;;
79578;SDS011;69051;52.406;5.280;2023-08-12T12:52:16;10.13;;;1.60;;
79578;SDS011;69051;52.406;5.280;2023-08-12T12:54:42;12.80;;;2.28;;
79578;SDS011;69051;52.406;5.280;2023-08-12T12:57:09;11.73;;;2.03;;
79578;SDS011;69051;52.406;5.280;2023-08-12T12:59:36;11.52;;;2.60;;
79578;SDS011;69051;52.406;5.280;2023-08-12T13:02:02;12.38;;;2.30;;
79578;SDS011;69051;52.406;5.280;2023-08-12T13:04:28;11.05;;;1.80;;
79578;SDS011;69051;52.406;5.280;2023-08-12T13:06:55;12.15;;;1.98;;
79578;SDS011;69051;52.406;5.280;2023-08-12T13:09:22;8.85;;;1.88;;
79578;SDS011;69051;52.406;5.280;2023-08-12T13:11:48;9.63;;;1.90;;
79578;SDS011;69051;52.406;5.280;2023-08-12T13:14:15;10.15;;;1.92;;
79578;SDS011;69051;52.406;5.280;2023-08-12T13:16:45;13.60;;;2.25;;
79578;SDS011;69051;52.406;5.280;2023-08-12T13:19:11;9.13;;;1.95;;
79578;SDS011;69051;52.406;5.280;2023-08-12T13:21:38;12.93;;;2.15;;
79578;SDS011;69051;52.406;5.280;2023-08-12T13:24:04;14.23;;;2.10;;
79578;SDS011;69051;52.406;5.280;2023-08-12T13:26:31;10.80;;;1.65;;
79578;SDS011;69051;52.406;5.280;2023-08-12T13:28:58;13.73;;;2.15;;
79578;SDS011;69051;52.406;5.280;2023-08-12T13:31:24;11.00;;;1.80;;
79578;SDS011;69051;52.406;5.280;2023-08-12T13:33:52;10.68;;;2.30;;
79578;SDS011;69051;52.406;5.280;2023-08-12T13:36:18;10.50;;;2.00;;
79578;SDS011;69051;52.406;5.280;2023-08-12T13:38:44;11.88;;;1.73;;
79578;SDS011;69051;52.406;5.280;2023-08-12T13:41:11;13.77;;;2.20;;
79578;SDS011;69051;52.406;5.280;2023-08-12T13:43:37;9.57;;;2.53;;
79578;SDS011;69051;52.406;5.280;2023-08-12T13:46:04;12.32;;;1.88;;
79578;SDS011;69051;52.406;5.280;2023-08-12T13:48:31;14.25;;;2.35;;
79578;SDS011;69051;52.406;5.280;2023-08-12T13:50:57;11.25;;;2.13;;
79578;SDS011;69051;52.406;5.280;2023-08-12T13:53:26;15.18;;;2.08;;
79578;SDS011;69051;52.406;5.280;2023-08-12T13:55:53;7.80;;;1.63;;
79578;SDS011;69051;52.406;5.280;2023-08-12T13:58:19;9.05;;;1.88;;
79578;SDS011;69051;52.406;5.280;2023-08-12T14:00:46;10.35;;;1.90;;
79578;SDS011;69051;52.406;5.280;2023-08-12T14:03:13;13.57;;;2.60;;
79578;SDS011;69051;52.406;5.280;2023-08-12T14:05:40;12.15;;;2.33;;
79578;SDS011;69051;52.406;5.280;2023-08-12T14:08:06;10.18;;;1.75;;
79578;SDS011;69051;52.406;5.280;2023-08-12T14:10:33;12.63;;;2.35;;
79578;SDS011;69051;52.406;5.280;2023-08-12T14:12:59;9.30;;;1.98;;
79578;SDS011;69051;52.406;5.280;2023-08-12T14:15:26;12.48;;;2.03;;
79578;SDS011;69051;52.406;5.280;2023-08-12T14:17:53;11.38;;;2.03;;
79578;SDS011;69051;52.406;5.280;2023-08-12T14:20:19;14.80;;;2.03;;
79578;SDS011;69051;52.406;5.280;2023-08-12T14:22:46;13.77;;;1.90;;
79578;SDS011;69051;52.406;5.280;2023-08-12T14:25:12;15.52;;;2.20;;
79578;SDS011;69051;52.406;5.280;2023-08-12T14:27:39;12.43;;;1.92;;
79578;SDS011;69051;52.406;5.280;2023-08-12T14:30:06;9.18;;;2.03;;
79578;SDS011;69051;52.406;5.280;2023-08-12T14:32:33;9.57;;;2.33;;
79578;SDS011;69051;52.406;5.280;2023-08-12T14:35:00;7.93;;;1.60;;
79578;SDS011;69051;52.406;5.280;2023-08-12T14:37:26;13.68;;;1.70;;
79578;SDS011;69051;52.406;5.280;2023-08-12T14:39:54;13.05;;;2.10;;
79578;SDS011;69051;52.406;5.280;2023-08-12T14:42:21;8.48;;;1.75;;
79578;SDS011;69051;52.406;5.280;2023-08-12T14:44:48;8.23;;;1.77;;
79578;SDS011;69051;52.406;5.280;2023-08-12T14:47:15;8.52;;;1.70;;
79578;SDS011;69051;52.406;5.280;2023-08-12T14:49:42;10.70;;;1.70;;
79578;SDS011;69051;52.406;5.280;2023-08-12T14:52:15;10.35;;;1.80;;
79578;SDS011;69051;52.406;5.280;2023-08-12T14:54:42;11.25;;;2.10;;
79578;SDS011;69051;52.406;5.280;2023-08-12T14:57:08;11.98;;;2.47;;
79578;SDS011;69051;52.406;5.280;2023-08-12T14:59:35;10.65;;;1.90;;